Time;durP1;ratioP1;P1;durP2;ratioP2;P2;SDS_P1;SDS_P2;PMS_P1;PMS_P2;Temp;Humidity;BMP_temperature;BMP_pressure;BME280_temperature;BME280_humidity;BME280_pressure;Samples;Min_cycle;Max_cycle;Signal;HPM_P1;HPM_P2
2023/12/31 00:02:04;;;;;;;;;10.50;8.25;;;;;-143.90;100.00;76197.78;4884979;28;102300;-76
2023/12/31 00:04:31;;;;;;;;;6.50;5.00;;;;;-143.90;100.00;76214.31;4884905;28;102359;-76
2023/12/31 00:06:57;;;;;;;;;11.00;11.00;;;;;-143.90;100.00;76210.19;4886371;28;104382;-75
2023/12/31 00:09:25;;;;;;;;;6.00;5.50;;;;;-143.90;100.00;76212.25;4876552;28;103088;-76
2023/12/31 00:11:51;;;;;;;;;11.75;10.50;;;;;-143.90;100.00;76208.13;4886940;28;102364;-77
2023/12/31 00:14:18;;;;;;;;;9.25;6.50;;;;;-143.90;100.00;76214.31;4886477;28;102047;-76
2023/12/31 00:16:45;;;;;;;;;12.50;8.00;;;;;-143.90;100.00;76214.31;4885103;28;104128;-76
2023/12/31 00:19:11;;;;;;;;;7.00;6.00;;;;;-143.90;100.00;76222.59;4874968;28;103277;-76
2023/12/31 00:21:42;;;;;;;;;7.25;5.25;;;;;-143.90;100.00;76222.59;4888802;28;102028;-75
2023/12/31 00:24:09;;;;;;;;;6.25;5.75;;;;;-143.90;100.00;76222.59;4884330;28;102198;-76
2023/12/31 00:26:36;;;;;;;;;6.00;4.75;;;;;-143.90;100.00;76226.72;4882735;28;104144;-74
2023/12/31 00:29:02;;;;;;;;;5.25;3.25;;;;;-143.90;100.00;76232.94;4880926;28;102245;-76
2023/12/31 00:31:29;;;;;;;;;5.75;5.00;;;;;-143.90;100.00;76241.22;4865848;28;102358;-75
2023/12/31 00:33:57;;;;;;;;;3.00;3.00;;;;;-143.90;100.00;76239.13;4891384;28;102051;-76
2023/12/31 00:36:24;;;;;;;;;2.25;1.00;;;;;-143.90;100.00;76239.13;4885848;28;103980;-75
2023/12/31 00:38:53;;;;;;;;;5.25;3.50;;;;;-143.90;100.00;76243.28;4884261;28;102485;-75
2023/12/31 00:41:19;;;;;;;;;3.00;2.50;;;;;-143.90;100.00;76239.13;4877500;28;104878;-75
2023/12/31 00:43:46;;;;;;;;;11.75;10.50;;;;;-143.90;100.00;76241.22;4884992;28;102296;-75
2023/12/31 00:46:16;;;;;;;;;13.50;11.00;;;;;-143.90;100.00;76241.22;4885701;28;104043;-75
2023/12/31 00:48:42;;;;;;;;;10.25;8.00;;;;;-143.90;100.00;76247.41;4881797;28;102546;-75
2023/12/31 00:51:09;;;;;;;;;0.75;0.00;;;;;-143.90;100.00;76255.69;4876027;28;102072;-74
2023/12/31 00:53:36;;;;;;;;;4.00;4.00;;;;;-143.90;100.00;76259.81;4884673;28;102544;-74
2023/12/31 00:56:03;;;;;;;;;7.75;6.50;;;;;-143.90;100.00;76259.81;4885584;28;104056;-73
2023/12/31 00:58:29;;;;;;;;;6.50;5.50;;;;;-143.90;100.00;76263.97;4887747;28;102287;-75
2023/12/31 01:00:56;;;;;;;;;4.75;3.75;;;;;-143.90;100.00;76266.03;4883242;28;102561;-75
2023/12/31 01:03:23;;;;;;;;;2.00;2.00;;;;;-143.90;100.00;76268.09;4871505;28;102734;-75
2023/12/31 01:05:49;;;;;;;;;4.50;3.50;;;;;-143.90;100.00;76276.38;4880969;28;104330;-75
2023/12/31 01:08:16;;;;;;;;;2.00;2.00;;;;;-143.90;100.00;76276.38;4882780;28;102307;-75
2023/12/31 01:10:43;;;;;;;;;6.00;4.75;;;;;-143.90;100.00;76282.56;4880503;28;102346;-75
2023/12/31 01:13:10;;;;;;;;;2.00;1.00;;;;;-143.90;100.00;76280.50;4856653;28;102084;-75
2023/12/31 01:15:36;;;;;;;;;2.50;2.00;;;;;-143.90;100.00;76288.78;4876291;28;104340;-75
2023/12/31 01:18:03;;;;;;;;;1.75;1.25;;;;;-143.90;100.00;76284.63;4876142;28;102151;-74
2023/12/31 01:20:30;;;;;;;;;1.00;1.00;;;;;-143.90;100.00;76280.50;4875326;28;102539;-76
2023/12/31 01:22:57;;;;;;;;;2.75;2.75;;;;;-143.90;100.00;76284.63;4882929;28;101999;-75
2023/12/31 01:25:23;;;;;;;;;3.25;2.75;;;;;-143.90;100.00;76288.78;4868033;28;104025;-75
2023/12/31 01:27:50;;;;;;;;;6.25;5.50;;;;;-143.90;100.00;76294.97;4875647;28;102356;-75
2023/12/31 01:30:16;;;;;;;;;7.00;5.75;;;;;-143.90;100.00;76282.56;4870673;28;102753;-74
2023/12/31 01:32:44;;;;;;;;;10.00;9.00;;;;;-143.90;100.00;76284.63;4876730;28;102542;-74
2023/12/31 01:35:11;;;;;;;;;10.00;8.50;;;;;-143.90;100.00;76280.50;4861987;28;104661;-74
2023/12/31 01:37:37;;;;;;;;;11.00;6.75;;;;;-143.90;100.00;76286.69;4882961;28;102327;-74
2023/12/31 01:40:04;;;;;;;;;13.75;13.75;;;;;-143.90;100.00;76288.78;4883222;28;102155;-73
2023/12/31 01:42:31;;;;;;;;;10.00;10.00;;;;;-143.90;100.00;76292.91;4882095;28;102954;-73
2023/12/31 01:44:58;;;;;;;;;8.75;8.00;;;;;-143.90;100.00;76297.03;4879959;28;108810;-76
2023/12/31 01:47:25;;;;;;;;;13.75;13.00;;;;;-143.90;100.00;76309.44;4869884;28;102128;-75
2023/12/31 01:49:52;;;;;;;;;16.00;15.00;;;;;-143.90;100.00;76303.25;4882244;28;102146;-75
2023/12/31 01:52:19;;;;;;;;;10.25;9.75;;;;;-143.90;100.00;76305.31;4881452;28;102622;-74
2023/12/31 01:54:46;;;;;;;;;10.00;7.75;;;;;-143.90;100.00;76305.31;4881882;28;104060;-73
2023/12/31 01:57:14;;;;;;;;;4.00;4.00;;;;;-143.90;100.00;76315.66;4863069;28;102598;-74
2023/12/31 01:59:41;;;;;;;;;10.25;8.50;;;;;-143.90;100.00;76321.84;4879883;28;102000;-74
2023/12/31 02:02:08;;;;;;;;;11.75;7.75;;;;;-143.90;100.00;76330.13;4879315;28;104460;-74
2023/12/31 02:04:34;;;;;;;;;7.75;6.75;;;;;-143.90;100.00;76328.06;4871869;28;104140;-74
2023/12/31 02:07:02;;;;;;;;;6.00;5.00;;;;;-143.90;100.00;76330.13;4877535;28;102642;-74
2023/12/31 02:09:29;;;;;;;;;6.75;4.25;;;;;-143.90;100.00;76328.06;4874299;28;102283;-74
2023/12/31 02:11:57;;;;;;;;;6.75;3.50;;;;;-143.90;100.00;76321.84;4875630;28;102265;-74
2023/12/31 02:14:24;;;;;;;;;5.00;5.00;;;;;-143.90;100.00;76326.00;4881007;28;104090;-74
2023/12/31 02:16:51;;;;;;;;;8.75;8.00;;;;;-143.90;100.00;76321.84;4860146;28;102375;-76
2023/12/31 02:19:18;;;;;;;;;5.00;4.00;;;;;-143.90;100.00;76321.84;4868749;28;104898;-73
2023/12/31 02:21:44;;;;;;;;;4.50;4.00;;;;;-143.90;100.00;76317.72;4868737;28;102586;-73
2023/12/31 02:24:14;;;;;;;;;6.00;5.00;;;;;-143.90;100.00;76319.78;4872024;28;104084;-74
2023/12/31 02:26:41;;;;;;;;;10.75;9.75;;;;;-143.90;100.00;76321.84;4879994;28;102436;-73
2023/12/31 02:29:08;;;;;;;;;8.00;7.50;;;;;-143.90;100.00;76321.84;4873183;28;104529;-73
2023/12/31 02:31:35;;;;;;;;;13.50;12.00;;;;;-143.90;100.00;76309.44;4862030;28;102167;-73
2023/12/31 02:34:02;;;;;;;;;11.50;8.25;;;;;-143.90;100.00;76307.38;4881689;28;104022;-76
2023/12/31 02:36:29;;;;;;;;;8.75;8.00;;;;;-143.90;100.00;76303.25;4879954;28;102420;-76
2023/12/31 02:38:55;;;;;;;;;10.00;9.25;;;;;-143.90;100.00;76297.03;4883027;28;101833;-75
2023/12/31 02:41:22;;;;;;;;;17.25;17.00;;;;;-143.90;100.00;76297.03;4873727;28;102481;-76
2023/12/31 02:43:49;;;;;;;;;11.00;8.00;;;;;-143.90;100.00;76297.03;4879329;28;104110;-75
2023/12/31 02:46:16;;;;;;;;;8.50;6.50;;;;;-143.90;100.00;76301.19;4883335;28;105280;-76
2023/12/31 02:48:42;;;;;;;;;9.50;9.00;;;;;-143.90;100.00;76299.09;4884243;28;102728;-75
2023/12/31 02:51:09;;;;;;;;;15.50;12.00;;;;;-143.90;100.00;76297.03;4875057;28;102048;-74
2023/12/31 02:53:36;;;;;;;;;11.00;10.00;;;;;-143.90;100.00;76294.97;4887424;28;104177;-74
2023/12/31 02:56:02;;;;;;;;;9.00;6.00;;;;;-143.90;100.00;76299.09;4887224;28;102235;-75
2023/12/31 02:58:29;;;;;;;;;8.00;5.25;;;;;-143.90;100.00;76299.09;4884204;28;102380;-76
2023/12/31 03:00:56;;;;;;;;;4.00;4.00;;;;;-143.90;100.00;76303.25;4883919;28;101992;-76
2023/12/31 03:03:22;;;;;;;;;6.50;5.00;;;;;-143.90;100.00;76303.25;4866356;28;104027;-74
2023/12/31 03:05:50;;;;;;;;;4.00;1.25;;;;;-143.90;100.00;76311.53;4885369;28;102557;-74
2023/12/31 03:08:17;;;;;;;;;10.00;5.00;;;;;-143.90;100.00;76303.25;4886392;28;102649;-74
2023/12/31 03:10:43;;;;;;;;;8.75;8.75;;;;;-143.90;100.00;76297.03;4888739;28;102490;-74
2023/12/31 03:13:10;;;;;;;;;10.00;7.25;;;;;-143.90;100.00;76297.03;4875140;28;104935;-73
2023/12/31 03:15:37;;;;;;;;;6.25;5.75;;;;;-143.90;100.00;76290.84;4887890;28;102411;-76
2023/12/31 03:18:04;;;;;;;;;7.00;5.00;;;;;-143.90;100.00;76288.78;4882930;28;102415;-76
2023/12/31 03:20:31;;;;;;;;;8.50;5.75;;;;;-143.90;100.00;76286.69;4884758;28;102079;-76
2023/12/31 03:22:57;;;;;;;;;6.00;5.00;;;;;-143.90;100.00;76284.63;4885089;28;104114;-75
2023/12/31 03:25:24;;;;;;;;;6.00;4.75;;;;;-143.90;100.00;76284.63;4871820;28;103206;-75
2023/12/31 03:27:51;;;;;;;;;4.50;4.00;;;;;-143.90;100.00;76294.97;4886825;28;103088;-76
2023/12/31 03:30:18;;;;;;;;;9.25;8.00;;;;;-143.90;100.00;76294.97;4885268;28;102126;-76
2023/12/31 03:32:45;;;;;;;;;9.00;8.25;;;;;-143.90;100.00;76297.03;4883587;28;104951;-75
2023/12/31 03:35:11;;;;;;;;;5.00;4.25;;;;;-143.90;100.00;76292.91;4876000;28;102843;-73
2023/12/31 03:37:38;;;;;;;;;17.25;14.00;;;;;-143.90;100.00;76301.19;4883963;28;104609;-74
2023/12/31 03:40:06;;;;;;;;;24.00;21.00;;;;;-143.90;100.00;76292.91;4886635;28;104947;-73
2023/12/31 03:42:33;;;;;;;;;33.67;25.67;;;;;-143.90;100.00;76286.69;4886137;28;104082;-74
2023/12/31 03:45:00;;;;;;;;;43.00;37.67;;;;;-143.90;100.00;76288.78;4888921;28;102656;-74
2023/12/31 03:47:26;;;;;;;;;43.00;37.33;;;;;-143.90;100.00;76313.59;4863033;28;103059;-75
2023/12/31 03:49:53;;;;;;;;;37.33;31.33;;;;;-143.90;100.00;76321.84;4886467;28;102621;-76
2023/12/31 03:52:20;;;;;;;;;39.67;33.00;;;;;-143.90;100.00;76332.19;4885639;28;104089;-74
2023/12/31 03:54:46;;;;;;;;;52.00;42.67;;;;;-143.90;100.00;76342.53;4882468;28;102754;-74
2023/12/31 03:57:14;;;;;;;;;53.00;39.67;;;;;-143.90;100.00;76354.94;4876415;28;102477;-73
2023/12/31 03:59:40;;;;;;;;;48.67;40.00;;;;;-143.90;100.00;76363.22;4885165;28;102968;-73
2023/12/31 04:02:07;;;;;;;;;31.33;31.00;;;;;-143.90;100.00;76363.22;4886616;28;105459;-73
2023/12/31 04:04:34;;;;;;;;;25.33;23.67;;;;;-143.90;100.00;76363.22;4884653;28;102677;-73
2023/12/31 04:07:01;;;;;;;;;39.00;32.67;;;;;-143.90;100.00;76388.03;4884398;28;102099;-74
2023/12/31 04:09:28;;;;;;;;;53.67;40.67;;;;;-143.90;100.00;76400.44;4882380;28;102536;-76
2023/12/31 04:11:54;;;;;;;;;55.33;43.33;;;;;-143.90;100.00;76400.44;4884105;28;104177;-75
2023/12/31 04:14:21;;;;;;;;;36.33;33.33;;;;;-143.90;100.00;76402.50;4886108;28;102037;-75
2023/12/31 04:16:47;;;;;;;;;36.33;25.33;;;;;-143.90;100.00;76404.56;4883211;28;102346;-74
2023/12/31 04:19:14;;;;;;;;;46.00;40.33;;;;;-143.90;100.00;76417.00;4877214;28;102603;-74
2023/12/31 04:21:42;;;;;;;;;48.33;38.00;;;;;-143.90;100.00;76423.19;4878854;28;104008;-73
2023/12/31 04:24:08;;;;;;;;;35.00;27.33;;;;;-143.90;100.00;76421.13;4881213;28;102310;-73
2023/12/31 04:26:35;;;;;;;;;27.67;21.33;;;;;-143.90;100.00;76425.25;4877384;28;102092;-76
2023/12/31 04:29:02;;;;;;;;;16.00;13.00;;;;;-143.90;100.00;76425.25;4877239;28;102485;-74
2023/12/31 04:31:29;;;;;;;;;27.00;23.67;;;;;-143.90;100.00;76443.88;4873450;28;104955;-74
2023/12/31 04:33:55;;;;;;;;;68.33;48.33;;;;;-143.90;100.00;76474.91;4878695;28;102710;-73
2023/12/31 04:36:22;;;;;;;;;58.67;47.67;;;;;-143.90;100.00;76489.38;4884341;28;102189;-74
2023/12/31 04:38:49;;;;;;;;;61.33;41.67;;;;;-143.90;100.00;76487.31;4883344;28;102268;-74
2023/12/31 04:41:20;;;;;;;;;62.33;47.67;;;;;-143.90;100.00;76493.50;4871204;28;104099;-75
2023/12/31 04:43:46;;;;;;;;;49.67;41.00;;;;;-143.90;100.00;76493.50;4883872;28;102515;-75
2023/12/31 04:46:13;;;;;;;;;28.00;22.00;;;;;-143.90;100.00;76479.03;4884525;28;102363;-75
2023/12/31 04:48:41;;;;;;;;;22.33;20.67;;;;;-143.90;100.00;76479.03;4888938;28;102514;-75
2023/12/31 04:51:07;;;;;;;;;22.33;16.00;;;;;-143.90;100.00;76462.47;4872771;28;103956;-75
2023/12/31 04:53:34;;;;;;;;;14.67;11.33;;;;;-143.90;100.00;76454.22;4884622;28;103600;-74
2023/12/31 04:56:01;;;;;;;;;13.00;12.33;;;;;-143.90;100.00;76450.06;4887877;28;102315;-75
2023/12/31 04:58:27;;;;;;;;;15.33;12.00;;;;;-143.90;100.00;76445.94;4891101;28;101994;-75
2023/12/31 05:00:54;;;;;;;;;12.00;9.33;;;;;-143.90;100.00;76429.41;4882870;28;104076;-75
2023/12/31 05:03:20;;;;;;;;;20.00;15.00;;;;;-143.90;100.00;76425.25;4873432;28;102157;-74
2023/12/31 05:05:47;;;;;;;;;17.67;14.00;;;;;-143.90;100.00;76427.31;4884873;28;102240;-73
2023/12/31 05:08:14;;;;;;;;;38.00;34.33;;;;;-143.90;100.00;76429.41;4882636;28;101998;-76
2023/12/31 05:10:40;;;;;;;;;56.33;45.33;;;;;-143.90;100.00;76441.81;4882884;28;104145;-74
2023/12/31 05:13:07;;;;;;;;;66.00;48.00;;;;;-143.90;100.00;76452.16;4878069;28;102376;-75
2023/12/31 05:15:35;;;;;;;;;55.67;45.00;;;;;-143.90;100.00;76445.94;4880415;28;102330;-74
2023/12/31 05:18:02;;;;;;;;;59.33;43.67;;;;;-143.90;100.00;76454.22;4888274;28;102948;-74
2023/12/31 05:20:29;;;;;;;;;60.00;46.00;;;;;-143.90;100.00;76458.34;4878115;28;111210;-74
2023/12/31 05:22:56;;;;;;;;;51.67;42.67;;;;;-143.90;100.00;76454.22;4876618;28;104525;-74
2023/12/31 05:25:22;;;;;;;;;64.33;43.67;;;;;-143.90;100.00;76462.47;4874788;28;102127;-74
2023/12/31 05:27:49;;;;;;;;;44.00;41.33;;;;;-143.90;100.00;76464.56;4884977;28;102970;-74
2023/12/31 05:30:16;;;;;;;;;46.00;38.33;;;;;-143.90;100.00;76468.69;4884029;28;104103;-74
2023/12/31 05:32:42;;;;;;;;;52.00;41.00;;;;;-143.90;100.00;76470.75;4883643;28;102351;-73
2023/12/31 05:35:09;;;;;;;;;47.33;39.33;;;;;-143.90;100.00;76474.91;4873215;28;103465;-74
2023/12/31 05:37:36;;;;;;;;;44.67;40.67;;;;;-143.90;100.00;76487.31;4886445;28;102061;-74
2023/12/31 05:40:04;;;;;;;;;44.67;40.00;;;;;-143.90;100.00;76491.44;4870727;28;104279;-75
2023/12/31 05:42:31;;;;;;;;;52.00;42.00;;;;;-143.90;100.00;76507.97;4866901;28;102332;-75
2023/12/31 05:44:58;;;;;;;;;48.33;41.00;;;;;-143.90;100.00;76522.47;4885533;28;102397;-74
2023/12/31 05:47:25;;;;;;;;;59.33;44.33;;;;;-143.90;100.00;76545.22;4880328;28;104781;-76
2023/12/31 05:50:12;;;;;;;;;48.00;38.33;;;;;-143.90;100.00;76559.69;4881250;28;109177;-75
2023/12/31 05:52:39;;;;;;;;;63.00;46.33;;;;;-143.90;100.00;76570.03;4883184;28;102321;-75
2023/12/31 05:55:06;;;;;;;;;31.00;26.00;;;;;-143.90;100.00;76578.31;4875817;28;104039;-75
2023/12/31 05:57:33;;;;;;;;;60.00;44.00;;;;;-143.90;100.00;76578.31;4884786;28;102198;-76
2023/12/31 06:00:00;;;;;;;;;52.00;39.33;;;;;-143.90;100.00;76582.44;4881479;28;108606;-76
2023/12/31 06:02:27;;;;;;;;;36.67;27.33;;;;;-143.90;100.00;76572.09;4886376;28;102495;-76
2023/12/31 06:04:54;;;;;;;;;53.33;39.00;;;;;-143.90;100.00;76584.50;4878996;28;102349;-75
2023/12/31 06:07:21;;;;;;;;;50.00;42.33;;;;;-143.90;100.00;76590.72;4879023;28;102630;-75
2023/12/31 06:09:48;;;;;;;;;41.00;33.33;;;;;-143.90;100.00;76592.78;4881388;28;104240;-76
2023/12/31 06:12:14;;;;;;;;;41.00;35.33;;;;;-143.90;100.00;76584.50;4886277;28;102450;-76
2023/12/31 06:14:41;;;;;;;;;48.00;38.00;;;;;-143.90;100.00;76584.50;4881932;28;102821;-75
2023/12/31 06:17:08;;;;;;;;;46.00;41.67;;;;;-143.90;100.00;76580.38;4874321;28;102773;-75
2023/12/31 06:19:34;;;;;;;;;50.00;40.33;;;;;-143.90;100.00;76574.16;4864383;28;103977;-75
2023/12/31 06:22:03;;;;;;;;;43.67;32.67;;;;;-143.90;100.00;76565.88;4884731;28;102165;-76
2023/12/31 06:24:29;;;;;;;;;29.67;22.00;;;;;-143.90;100.00;76555.53;4877657;28;103582;-76
2023/12/31 06:26:56;;;;;;;;;52.00;41.33;;;;;-143.90;100.00;76565.88;4887518;28;103081;-76
2023/12/31 06:29:22;;;;;;;;;64.00;48.00;;;;;-143.90;100.00;76570.03;4873046;28;104180;-75
2023/12/31 06:31:49;;;;;;;;;65.67;50.33;;;;;-143.90;100.00;76559.69;4883677;28;102603;-75
2023/12/31 06:34:16;;;;;;;;;66.75;50.00;;;;;-143.90;100.00;76553.47;4885081;28;102407;-75
2023/12/31 06:36:43;;;;;;;;;79.75;59.50;;;;;-143.90;100.00;76553.47;4867505;28;105107;-75
2023/12/31 06:39:10;;;;;;;;;69.00;51.00;;;;;-143.90;100.00;76549.34;4875961;28;105156;-74
2023/12/31 06:41:37;;;;;;;;;83.25;60.75;;;;;-143.90;100.00;76549.34;4873113;28;102488;-76
2023/12/31 06:44:04;;;;;;;;;73.75;57.50;;;;;-143.90;100.00;76545.22;4873956;28;102282;-76
2023/12/31 06:46:31;;;;;;;;;61.33;47.00;;;;;-143.90;100.00;76532.78;4891698;28;101985;-74
2023/12/31 06:48:57;;;;;;;;;50.00;40.33;;;;;-143.90;100.00;76534.88;4889018;28;103982;-74
2023/12/31 06:51:24;;;;;;;;;44.67;36.33;;;;;-143.90;100.00;76539.00;4875032;28;102391;-74
2023/12/31 06:53:51;;;;;;;;;38.67;35.33;;;;;-143.90;100.00;76536.94;4886190;28;102281;-74
2023/12/31 06:56:18;;;;;;;;;37.67;31.33;;;;;-143.90;100.00;76524.53;4888801;28;102020;-75
2023/12/31 06:58:44;;;;;;;;;32.67;24.67;;;;;-143.90;100.00;76518.31;4885885;28;104141;-74
2023/12/31 07:01:12;;;;;;;;;48.00;40.00;;;;;-143.90;100.00;76524.53;4878240;28;102938;-74
2023/12/31 07:03:40;;;;;;;;;32.33;30.33;;;;;-143.90;100.00;76512.13;4887686;28;102027;-74
2023/12/31 07:06:07;;;;;;;;;28.33;25.67;;;;;-143.90;100.00;76501.78;4889205;28;102341;-74
2023/12/31 07:08:34;;;;;;;;;21.67;18.33;;;;;-143.90;100.00;76499.72;4873586;28;103079;-74
2023/12/31 07:11:01;;;;;;;;;20.33;19.00;;;;;-143.90;100.00;76497.63;4885264;28;102030;-75
2023/12/31 07:13:30;;;;;;;;;22.00;19.00;;;;;-143.90;100.00;76491.44;4880076;28;102067;-74
2023/12/31 07:16:00;;;;;;;;;19.33;15.67;;;;;-143.90;100.00;76483.16;4886090;28;102322;-75
2023/12/31 07:18:27;;;;;;;;;14.67;12.00;;;;;-143.90;100.00;76470.75;4888938;28;104207;-74
2023/12/31 07:20:55;;;;;;;;;15.67;11.33;;;;;-143.90;100.00;76464.56;4882854;28;103828;-74
2023/12/31 07:23:22;;;;;;;;;12.33;7.67;;;;;-143.90;100.00;76458.34;4879877;28;102194;-74
2023/12/31 07:25:49;;;;;;;;;12.00;9.67;;;;;-143.90;100.00;76450.06;4887155;28;102703;-75
2023/12/31 07:28:15;;;;;;;;;22.00;20.00;;;;;-143.90;100.00;76448.00;4889643;28;104346;-74
2023/12/31 07:30:44;;;;;;;;;22.67;18.00;;;;;-143.90;100.00;76431.47;4886169;28;102740;-74
2023/12/31 07:33:11;;;;;;;;;19.00;16.00;;;;;-143.90;100.00;76425.25;4881037;28;102274;-74
2023/12/31 07:35:38;;;;;;;;;22.00;15.67;;;;;-143.90;100.00;76421.13;4888499;28;102357;-75
2023/12/31 07:38:07;;;;;;;;;25.00;20.33;;;;;-143.90;100.00;76408.72;4888079;28;104084;-74
2023/12/31 07:40:34;;;;;;;;;11.00;11.00;;;;;-143.90;100.00;76396.31;4891478;28;104132;-74
2023/12/31 07:43:02;;;;;;;;;17.00;15.00;;;;;-143.90;100.00;76385.97;4883373;28;102538;-75
2023/12/31 07:45:29;;;;;;;;;12.67;11.00;;;;;-143.90;100.00;76375.63;4884399;28;102123;-75
2023/12/31 07:47:56;;;;;;;;;14.67;12.33;;;;;-143.90;100.00;76367.34;4889039;28;104319;-75
2023/12/31 07:50:23;;;;;;;;;13.00;12.00;;;;;-143.90;100.00;76350.81;4899749;28;102219;-74
2023/12/31 07:52:50;;;;;;;;;13.00;12.67;;;;;-143.90;100.00;76342.53;4890457;28;102365;-75
2023/12/31 07:55:18;;;;;;;;;14.00;9.00;;;;;-143.90;100.00;76330.13;4882702;28;102100;-73
2023/12/31 07:57:44;;;;;;;;;11.33;10.00;;;;;-143.90;100.00;76317.72;4887830;28;103969;-75
2023/12/31 08:00:12;;;;;;;;;14.33;13.67;;;;;-143.90;100.00;76309.44;4887415;28;103242;-75
2023/12/31 08:02:39;;;;;;;;;14.00;13.33;;;;;-143.90;100.00;76290.84;4885379;28;105093;-74
2023/12/31 08:05:06;;;;;;;;;13.00;9.00;;;;;-143.90;100.00;76282.56;4881554;28;103983;-75
2023/12/31 08:07:33;;;;;;;;;16.00;14.33;;;;;-143.90;100.00;76274.28;4887163;28;103958;-76
2023/12/31 08:10:00;;;;;;;;;9.75;9.75;;;;;-143.90;100.00;76263.97;4887458;28;102318;-76
2023/12/31 08:12:26;;;;;;;;;15.33;11.67;;;;;-143.90;100.00;76251.53;4889394;28;101878;-76
2023/12/31 08:14:53;;;;;;;;;9.75;8.50;;;;;-143.90;100.00;76243.28;4889564;28;102007;-76
2023/12/31 08:17:21;;;;;;;;;15.67;12.67;;;;;-143.90;100.00;76235.00;4876062;28;104219;-76
2023/12/31 08:19:48;;;;;;;;;12.00;9.50;;;;;-143.90;100.00;76226.72;4883787;28;102668;-75
2023/12/31 08:22:14;;;;;;;;;10.25;9.00;;;;;-143.90;100.00;76226.72;4883407;28;102082;-74
2023/12/31 08:24:41;;;;;;;;;18.75;15.25;;;;;-143.90;100.00;76224.66;4889404;28;102104;-76
2023/12/31 08:27:08;;;;;;;;;53.33;45.67;;;;;-143.90;100.00;76232.94;4876113;28;104171;-74
2023/12/31 08:29:34;;;;;;;;;61.33;49.67;;;;;-143.90;100.00;76214.31;4883744;28;102508;-74
2023/12/31 08:32:01;;;;;;;;;69.33;52.00;;;;;-143.90;100.00;76218.47;4890823;28;104854;-74
2023/12/31 08:34:29;;;;;;;;;55.67;45.00;;;;;-143.90;100.00;76193.66;4884605;28;102158;-75
2023/12/31 08:36:56;;;;;;;;;51.67;43.00;;;;;-143.90;100.00;76183.31;4880571;28;104060;-74
2023/12/31 08:39:23;;;;;;;;;49.00;40.00;;;;;-143.90;100.00;76166.75;4869168;28;102360;-74
2023/12/31 08:41:49;;;;;;;;;40.00;34.00;;;;;-143.90;100.00;76148.16;4880601;28;102090;-74
2023/12/31 08:44:16;;;;;;;;;33.67;30.00;;;;;-143.90;100.00;76135.75;4882786;28;102494;-74
2023/12/31 08:46:42;;;;;;;;;21.00;19.00;;;;;-143.90;100.00;76115.06;4882023;28;104157;-74
2023/12/31 08:49:09;;;;;;;;;19.50;17.00;;;;;-143.90;100.00;76100.59;4871831;28;103237;-76
2023/12/31 08:51:36;;;;;;;;;10.50;8.00;;;;;-143.90;100.00;76073.72;4884221;28;102388;-74
2023/12/31 08:54:03;;;;;;;;;20.75;14.75;;;;;-143.90;100.00;76055.09;4885750;28;102566;-75
2023/12/31 08:56:29;;;;;;;;;13.75;10.75;;;;;-143.90;100.00;76032.34;4882654;28;108733;-74
2023/12/31 08:58:56;;;;;;;;;9.75;6.00;;;;;-143.90;100.00;76019.94;4887362;28;102485;-75
2023/12/31 09:01:22;;;;;;;;;21.75;15.25;;;;;-143.90;100.00;75995.13;4879115;28;105416;-75
2023/12/31 09:03:49;;;;;;;;;13.75;12.00;;;;;-143.90;100.00;75970.31;4886222;28;104854;-75
2023/12/31 09:06:18;;;;;;;;;16.00;11.50;;;;;-143.90;100.00;75941.38;4886309;28;106465;-74
2023/12/31 09:08:46;;;;;;;;;11.25;11.25;;;;;-143.90;100.00;75928.97;4884888;28;103829;-74
2023/12/31 09:11:13;;;;;;;;;10.00;9.00;;;;;-143.90;100.00;75897.94;4876069;28;101990;-74
2023/12/31 09:13:39;;;;;;;;;11.75;10.75;;;;;-143.90;100.00;75879.34;4887112;28;102095;-74
2023/12/31 09:16:07;;;;;;;;;9.75;7.00;;;;;-143.90;100.00;75858.66;4885364;28;104129;-74
2023/12/31 09:18:34;;;;;;;;;9.25;6.75;;;;;-143.90;100.00;75844.19;4887087;28;102962;-75
2023/12/31 09:21:00;;;;;;;;;13.00;11.00;;;;;-143.90;100.00;75833.84;4883908;28;104467;-75
2023/12/31 09:23:27;;;;;;;;;10.00;10.00;;;;;-143.90;100.00;75811.09;4879406;28;102080;-75
2023/12/31 09:25:55;;;;;;;;;15.75;13.75;;;;;-143.90;100.00;75800.75;4882493;28;104112;-75
2023/12/31 09:28:21;;;;;;;;;13.50;12.00;;;;;-143.90;100.00;75775.94;4886755;28;102536;-76
2023/12/31 09:30:48;;;;;;;;;18.25;13.50;;;;;-143.90;100.00;75747.00;4882007;28;101976;-76
2023/12/31 09:33:14;;;;;;;;;16.75;14.00;;;;;-143.90;100.00;75722.19;4877786;28;102255;-76
2023/12/31 09:35:41;;;;;;;;;13.50;11.00;;;;;-143.90;100.00;75711.84;4883034;28;104048;-76
2023/12/31 09:38:08;;;;;;;;;11.75;11.00;;;;;-143.90;100.00;75693.25;4886208;28;102397;-76
2023/12/31 09:40:34;;;;;;;;;10.00;7.75;;;;;-143.90;100.00;75674.63;4890004;28;102429;-76
2023/12/31 09:43:03;;;;;;;;;6.25;6.00;;;;;-143.90;100.00;75676.69;4877794;28;102672;-76
2023/12/31 09:45:30;;;;;;;;;6.00;5.50;;;;;-143.90;100.00;75656.03;4876418;28;106195;-75
2023/12/31 09:47:59;;;;;;;;;5.00;5.00;;;;;-143.90;100.00;75635.34;4882831;28;103415;-76
2023/12/31 09:50:27;;;;;;;;;5.25;4.25;;;;;-143.90;100.00;75618.81;4881231;28;102512;-76
2023/12/31 09:52:59;;;;;;;;;6.25;6.25;;;;;-143.90;100.00;75604.34;4881154;28;103011;-76
2023/12/31 09:55:28;;;;;;;;;8.00;8.00;;;;;-143.90;100.00;75606.41;4883438;28;104313;-76
2023/12/31 09:57:56;;;;;;;;;14.50;11.75;;;;;-143.90;100.00;75598.13;4883335;28;102380;-76
2023/12/31 10:00:23;;;;;;;;;30.25;25.00;;;;;-143.90;100.00;75602.25;4884109;28;102287;-76
2023/12/31 10:02:53;;;;;;;;;45.33;38.33;;;;;-143.90;100.00;75635.34;4887916;28;102049;-77
2023/12/31 10:05:25;;;;;;;;;72.33;54.00;;;;;-143.90;100.00;75682.91;4873910;28;104009;-76
2023/12/31 10:07:54;;;;;;;;;62.67;51.67;;;;;-143.90;100.00;75680.84;4885297;28;104066;-75
2023/12/31 10:10:22;;;;;;;;;49.67;42.00;;;;;-143.90;100.00;75649.81;4884592;28;105063;-75
2023/12/31 10:12:48;;;;;;;;;43.00;36.50;;;;;-143.90;100.00;75631.22;4887578;28;106086;-75
2023/12/31 10:15:15;;;;;;;;;45.25;33.50;;;;;-143.90;100.00;75610.53;4877948;28;104130;-75
2023/12/31 10:17:42;;;;;;;;;25.50;23.75;;;;;-143.90;100.00;75585.72;4887437;28;102441;-75
2023/12/31 10:20:09;;;;;;;;;31.50;28.25;;;;;-143.90;100.00;75567.13;4891351;28;102325;-76
2023/12/31 10:22:36;;;;;;;;;30.50;27.00;;;;;-143.90;100.00;75560.91;4887045;28;102183;-76
2023/12/31 10:25:14;;;;;;;;;20.75;17.25;;;;;-143.90;100.00;75536.09;4881088;28;104105;-76
2023/12/31 10:27:43;;;;;;;;;17.25;13.50;;;;;-143.90;100.00;75513.34;4885671;28;102106;-75
2023/12/31 10:30:10;;;;;;;;;10.75;9.75;;;;;-143.90;100.00;75494.75;4889584;28;102199;-74
2023/12/31 10:32:37;;;;;;;;;12.75;12.25;;;;;-143.90;100.00;75488.53;4891359;28;102174;-74
2023/12/31 10:35:05;;;;;;;;;19.25;18.00;;;;;-143.90;100.00;75469.94;4883360;28;108991;-75
2023/12/31 10:37:34;;;;;;;;;21.00;18.00;;;;;-143.90;100.00;75465.81;4886209;28;102517;-76
2023/12/31 10:40:17;;;;;;;;;27.50;24.25;;;;;-143.90;100.00;75457.53;4888857;28;102428;-75
2023/12/31 10:42:55;;;;;;;;;24.00;20.00;;;;;-143.90;100.00;75445.13;4868060;28;102471;-77
2023/12/31 10:45:23;;;;;;;;;28.75;19.75;;;;;-143.90;100.00;75436.84;4870771;28;103923;-75
2023/12/31 10:47:51;;;;;;;;;53.00;37.75;;;;;-143.90;100.00;75436.84;4884031;28;103757;-75
2023/12/31 10:50:30;;;;;;;;;49.00;39.25;;;;;-143.90;100.00;75432.72;4887221;28;103028;-76
2023/12/31 10:53:01;;;;;;;;;40.50;36.00;;;;;-143.90;100.00;75422.38;4888274;28;102194;-75